Time;durP1;ratioP1;P1;durP2;ratioP2;P2;SDS_P1;SDS_P2;PMS_P1;PMS_P2;Temp;Humidity;BMP_temperature;BMP_pressure;BME280_temperature;BME280_humidity;BME280_pressure;Samples;Min_cycle;Max_cycle;Signal;HPM_P1;HPM_P2
2022/01/20 00:01:08;;;;;;;214.48;123.07;;;-0.90;99.90;;;;;;4953287;29;20032;-73
2022/01/20 00:03:36;;;;;;;130.80;74.55;;;-0.90;99.90;;;;;;4952972;29;20034;-74
2022/01/20 00:07:05;;;;;;;139.13;76.53;;;-0.90;99.90;;;;;;4953284;29;20187;-74
2022/01/20 00:28:46;;;;;;;76.18;48.17;;;-1.30;99.90;;;;;;4875205;29;20040;-74
2022/01/20 00:33:58;;;;;;;82.10;51.08;;;-1.30;99.90;;;;;;4875175;29;20488;-76
2022/01/20 00:39:03;;;;;;;98.93;61.83;;;-1.30;99.90;;;;;;4874928;29;20559;-74
2022/01/20 00:41:30;;;;;;;100.85;66.05;;;-1.30;99.90;;;;;;4875437;29;20085;-76
2022/01/20 00:43:56;;;;;;;100.97;58.33;;;-1.30;99.90;;;;;;4875175;29;20033;-74
2022/01/20 00:46:22;;;;;;;127.60;71.22;;;-1.30;99.90;;;;;;4859056;29;20055;-74
2022/01/20 00:48:48;;;;;;;136.38;70.55;;;-1.30;99.90;;;;;;4874957;29;20488;-74
2022/01/20 00:51:14;;;;;;;115.53;65.47;;;-1.30;99.90;;;;;;4874870;29;20116;-73
2022/01/20 00:53:44;;;;;;;135.50;71.07;;;-1.30;99.90;;;;;;4875223;29;20033;-73
2022/01/20 00:56:12;;;;;;;114.60;67.85;;;-1.30;99.90;;;;;;4874981;29;20064;-73
2022/01/20 00:58:39;;;;;;;114.93;68.78;;;-1.30;99.90;;;;;;4858932;29;20041;-73
2022/01/20 01:01:05;;;;;;;100.55;57.88;;;-1.30;99.90;;;;;;4874857;29;20761;-72
2022/01/20 01:03:31;;;;;;;95.97;63.50;;;-1.30;99.90;;;;;;4859008;29;20041;-73
2022/01/20 01:08:42;;;;;;;118.68;71.60;;;-1.40;99.90;;;;;;4953293;29;20043;-73
2022/01/20 01:11:08;;;;;;;87.38;56.53;;;-1.40;99.90;;;;;;4952999;29;20475;-72
2022/01/20 01:13:34;;;;;;;95.90;55.60;;;-1.40;99.90;;;;;;4953576;29;20035;-72
2022/01/20 01:16:00;;;;;;;99.45;58.28;;;-1.30;99.90;;;;;;4951454;29;20042;-74
2022/01/20 01:21:15;;;;;;;119.15;69.65;;;-1.30;99.90;;;;;;4951552;29;20188;-73
2022/01/20 01:23:44;;;;;;;107.00;65.88;;;-1.30;99.90;;;;;;4951592;29;20047;-73
2022/01/20 01:26:16;;;;;;;109.82;63.53;;;-1.30;99.90;;;;;;4953164;29;20031;-73
2022/01/20 01:28:44;;;;;;;92.38;60.47;;;-1.30;99.90;;;;;;4951607;29;20055;-72
2022/01/20 01:33:57;;;;;;;99.15;64.40;;;-1.20;99.90;;;;;;4951778;29;20027;-73
2022/01/20 01:36:26;;;;;;;135.75;77.22;;;-1.30;99.90;;;;;;4952808;29;20023;-72
2022/01/20 01:38:54;;;;;;;128.00;74.90;;;-1.30;99.90;;;;;;4950888;29;20042;-72
2022/01/20 01:41:36;;;;;;;138.18;85.00;;;-1.30;99.90;;;;;;4951751;29;20390;-72
2022/01/20 01:44:07;;;;;;;;;;;-1.30;99.90;;;;;;4952250;29;20483;-72
2022/01/20 01:46:35;;;;;;;167.90;100.75;;;-1.30;99.90;;;;;;4951089;29;19910;-69
2022/01/20 01:49:02;;;;;;;201.30;119.32;;;-1.30;99.90;;;;;;4935247;29;20024;-72
2022/01/20 01:51:28;;;;;;;156.45;89.80;;;-1.40;99.90;;;;;;4952727;29;20038;-73
2022/01/20 01:53:54;;;;;;;151.50;84.93;;;-1.40;99.90;;;;;;4950534;29;20036;-74
2022/01/20 01:56:23;;;;;;;147.35;88.50;;;-1.40;99.90;;;;;;4951185;29;20059;-72
2022/01/20 01:58:49;;;;;;;151.43;90.38;;;-1.40;99.90;;;;;;4950620;29;20406;-75
2022/01/20 02:01:26;;;;;;;132.82;81.20;;;-1.40;99.90;;;;;;4951032;29;20107;-72
2022/01/20 02:04:08;;;;;;;122.25;78.22;;;-1.40;99.90;;;;;;4950969;29;20055;-72
2022/01/20 02:18:00;;;;;;;157.07;91.35;;;-1.50;99.90;;;;;;4874443;29;20112;-71
2022/01/20 02:20:27;;;;;;;127.47;79.63;;;-1.50;99.90;;;;;;4874375;29;20057;-70
2022/01/20 02:22:56;;;;;;;144.40;87.90;;;-1.60;99.90;;;;;;4858534;29;20512;-70
2022/01/20 02:25:36;;;;;;;155.52;93.78;;;-1.70;99.90;;;;;;4874208;29;20064;-72
2022/01/20 02:28:05;;;;;;;148.43;91.85;;;-1.80;99.90;;;;;;4872914;29;20109;-72
2022/01/20 02:30:33;;;;;;;142.68;91.57;;;-1.80;99.90;;;;;;4858360;29;20029;-74
2022/01/20 02:33:11;;;;;;;154.70;91.35;;;-1.80;99.90;;;;;;4873995;29;20076;-71
2022/01/20 02:35:41;;;;;;;150.82;92.38;;;-1.80;99.90;;;;;;4858607;29;20096;-73
2022/01/20 02:45:55;;;;;;;162.20;96.78;;;-1.70;99.90;;;;;;4896411;29;20472;-73
2022/01/20 02:48:23;;;;;;;157.52;93.68;;;-1.70;99.90;;;;;;4941879;29;20043;-73
2022/01/20 02:50:49;;;;;;;148.60;89.10;;;-1.70;99.90;;;;;;4954217;29;20038;-73
2022/01/20 02:53:15;;;;;;;155.70;96.05;;;-1.80;99.90;;;;;;4955253;29;20032;-73
2022/01/20 02:55:41;;;;;;;153.10;95.47;;;-1.80;99.90;;;;;;4954472;29;20668;-73
2022/01/20 02:58:08;;;;;;;167.05;104.18;;;-1.80;99.90;;;;;;4955133;28;20050;-73
2022/01/20 03:00:38;;;;;;;151.25;96.65;;;-1.80;99.90;;;;;;4953841;29;20047;-74
2022/01/20 03:03:04;;;;;;;163.45;97.82;;;-1.80;99.90;;;;;;4955499;29;20074;-71
2022/01/20 03:05:33;;;;;;;189.68;121.65;;;-1.90;99.90;;;;;;4955402;29;20476;-73
2022/01/20 03:08:04;;;;;;;169.35;104.80;;;-1.80;99.90;;;;;;4954113;29;20031;-74
2022/01/20 03:10:31;;;;;;;171.07;106.38;;;-1.90;99.90;;;;;;4953727;29;20035;-73
2022/01/20 03:12:57;;;;;;;183.60;117.38;;;-1.90;99.90;;;;;;4954736;29;20134;-74
2022/01/20 03:15:24;;;;;;;167.13;102.25;;;-2.00;99.90;;;;;;4954933;29;20580;-71
2022/01/20 03:17:51;;;;;;;201.95;122.85;;;-1.90;99.90;;;;;;4955207;29;20030;-74
2022/01/20 03:20:17;;;;;;;203.43;125.30;;;-1.90;99.90;;;;;;4954959;29;20421;-74
2022/01/20 03:22:43;;;;;;;178.57;110.90;;;-2.00;99.90;;;;;;4954828;29;20025;-72
2022/01/20 03:25:11;;;;;;;175.95;101.30;;;-2.00;99.90;;;;;;4955206;29;20540;-72
2022/01/20 03:27:38;;;;;;;151.27;91.13;;;-2.00;99.90;;;;;;4955006;29;20488;-74
2022/01/20 03:30:07;;;;;;;178.88;109.78;;;-1.90;99.90;;;;;;4953697;29;20105;-73
2022/01/20 03:32:34;;;;;;;165.18;105.03;;;-1.90;99.90;;;;;;4953698;29;20023;-73
2022/01/20 03:35:01;;;;;;;166.50;102.18;;;-1.90;99.90;;;;;;4953692;29;20374;-73
2022/01/20 03:37:28;;;;;;;162.80;96.45;;;-1.90;99.90;;;;;;4953378;29;20520;-74
2022/01/20 03:39:59;;;;;;;150.40;93.18;;;-2.00;99.90;;;;;;4937256;29;20514;-73
2022/01/20 03:42:26;;;;;;;124.10;74.32;;;-2.00;99.90;;;;;;4953258;29;20027;-74
2022/01/20 03:44:53;;;;;;;116.40;68.15;;;-2.00;99.90;;;;;;4953238;29;20058;-73
2022/01/20 03:47:21;;;;;;;123.95;74.63;;;-2.00;99.90;;;;;;4953053;29;20466;-73
2022/01/20 03:52:20;;;;;;;126.47;78.40;;;-2.00;99.90;;;;;;4953123;28;20126;-74
2022/01/20 03:54:46;;;;;;;125.90;78.60;;;-1.90;99.90;;;;;;4953115;29;20266;-75
2022/01/20 03:57:25;;;;;;;120.85;70.68;;;-1.90;99.90;;;;;;4954318;28;20036;-74
2022/01/20 04:00:02;;;;;;;102.60;67.28;;;-1.90;99.90;;;;;;4953983;29;20110;-74
2022/01/20 04:02:46;;;;;;;108.25;68.40;;;-1.90;99.90;;;;;;4954286;29;20123;-73
2022/01/20 04:05:38;;;;;;;99.40;63.28;;;-1.90;99.90;;;;;;4954228;29;20090;-71
2022/01/20 04:08:25;;;;;;;95.28;64.57;;;-1.90;99.90;;;;;;4954808;28;20143;-71
2022/01/20 04:10:51;;;;;;;113.40;68.18;;;-1.90;99.90;;;;;;4952689;29;20037;-68
2022/01/20 04:13:18;;;;;;;124.13;75.13;;;-1.90;99.90;;;;;;4954100;29;20114;-72
2022/01/20 04:15:48;;;;;;;131.82;82.18;;;-2.00;99.90;;;;;;4952670;29;20035;-72
2022/01/20 04:18:20;;;;;;;124.45;75.82;;;-2.10;99.90;;;;;;4952865;29;20027;-71
2022/01/20 04:20:46;;;;;;;122.38;71.45;;;-2.10;99.90;;;;;;4952699;29;20537;-71
2022/01/20 04:23:15;;;;;;;124.57;74.20;;;-2.10;99.90;;;;;;4952499;29;20027;-75
2022/01/20 04:25:41;;;;;;;124.15;76.97;;;-2.10;99.90;;;;;;4936865;29;20058;-71
2022/01/20 04:28:07;;;;;;;131.73;82.90;;;-2.10;99.90;;;;;;4952725;29;20024;-71
2022/01/20 04:30:35;;;;;;;124.10;75.80;;;-2.30;99.90;;;;;;4952286;29;20027;-74
2022/01/20 04:33:01;;;;;;;111.55;71.90;;;-2.40;99.90;;;;;;4952534;29;20255;-71
2022/01/20 04:35:27;;;;;;;128.23;76.35;;;-2.40;99.90;;;;;;4952370;29;20050;-72
2022/01/20 04:37:56;;;;;;;124.50;76.43;;;-2.30;99.90;;;;;;4952205;29;20027;-71
2022/01/20 04:40:22;;;;;;;111.15;73.60;;;-2.30;99.90;;;;;;4953029;29;20133;-71
2022/01/20 04:42:49;;;;;;;114.20;73.43;;;-2.30;99.90;;;;;;4952066;29;20027;-74
2022/01/20 04:45:29;;;;;;;132.40;79.15;;;-2.30;99.90;;;;;;4953232;29;20031;-74
2022/01/20 04:48:13;;;;;;;153.38;90.18;;;-2.30;99.90;;;;;;4952978;29;20493;-74
2022/01/20 04:58:52;;;;;;;178.43;106.40;;;-2.30;99.90;;;;;;4951440;29;20074;-75
2022/01/20 05:01:18;;;;;;;183.90;116.35;;;-2.40;99.90;;;;;;4935160;29;20482;-72
2022/01/20 05:04:05;;;;;;;193.55;124.22;;;-2.60;99.90;;;;;;4952407;28;20031;-72
2022/01/20 05:06:52;;;;;;;203.65;129.65;;;-2.60;99.90;;;;;;4938451;29;20046;-74
2022/01/20 05:09:19;;;;;;;190.88;118.07;;;-2.60;99.90;;;;;;4951210;29;20481;-71
2022/01/20 05:11:51;;;;;;;197.73;119.57;;;-2.50;99.90;;;;;;4951388;29;20644;-74
2022/01/20 05:14:18;;;;;;;186.25;113.03;;;-2.50;99.90;;;;;;4951109;29;20046;-75
2022/01/20 05:16:44;;;;;;;200.30;116.93;;;-2.50;99.90;;;;;;4948811;29;20386;-72
2022/01/20 05:19:10;;;;;;;210.38;121.68;;;-2.50;99.90;;;;;;4941587;29;20541;-74
2022/01/20 05:21:36;;;;;;;261.95;149.63;;;-2.40;99.90;;;;;;4946938;29;20055;-69
2022/01/20 05:24:07;;;;;;;235.60;127.25;;;-2.50;99.90;;;;;;4951324;29;20050;-70
2022/01/20 05:26:33;;;;;;;263.20;133.15;;;-2.50;99.90;;;;;;4951401;29;20039;-71
2022/01/20 05:29:00;;;;;;;277.00;142.20;;;-2.50;99.90;;;;;;4951096;28;20514;-75
2022/01/20 05:31:26;;;;;;;259.92;138.35;;;-2.40;99.90;;;;;;4935108;29;20027;-71
2022/01/20 05:33:53;;;;;;;273.98;143.02;;;-2.40;99.90;;;;;;4951085;29;20133;-72
2022/01/20 05:36:20;;;;;;;249.57;134.05;;;-2.40;99.90;;;;;;4951032;29;20033;-71
2022/01/20 05:38:46;;;;;;;233.43;136.57;;;-2.30;99.90;;;;;;4951033;29;20162;-72
2022/01/20 05:41:13;;;;;;;223.80;124.65;;;-2.30;99.90;;;;;;4960497;29;20430;-72
2022/01/20 05:43:42;;;;;;;220.23;118.68;;;-2.30;99.90;;;;;;4958922;29;20078;-72
2022/01/20 05:46:09;;;;;;;179.80;109.32;;;-2.20;99.90;;;;;;4934836;29;20043;-69
2022/01/20 05:48:36;;;;;;;179.38;105.97;;;-2.20;99.90;;;;;;4934884;29;20038;-71
2022/01/20 05:51:20;;;;;;;165.38;99.07;;;-2.20;99.90;;;;;;4952077;29;20463;-71
2022/01/20 05:53:46;;;;;;;167.68;100.95;;;-2.30;99.90;;;;;;4950741;29;20118;-71
2022/01/20 05:56:12;;;;;;;172.55;108.45;;;-2.40;99.90;;;;;;4951090;29;20114;-71
2022/01/20 05:58:39;;;;;;;148.48;93.60;;;-2.40;99.90;;;;;;4950491;28;20039;-71
2022/01/20 06:01:10;;;;;;;179.50;109.90;;;-2.30;99.90;;;;;;4950794;29;20470;-71
2022/01/20 06:03:36;;;;;;;231.02;139.85;;;-2.30;99.90;;;;;;4950223;29;20134;-71
2022/01/20 06:06:04;;;;;;;202.80;120.70;;;-2.30;99.90;;;;;;4951132;29;20060;-71
2022/01/20 06:08:30;;;;;;;202.57;124.40;;;-2.20;99.90;;;;;;4952199;29;20102;-71
2022/01/20 06:10:56;;;;;;;170.73;103.53;;;-2.20;99.90;;;;;;4950881;29;20050;-71
2022/01/20 06:13:26;;;;;;;177.98;107.30;;;-2.10;99.90;;;;;;4950998;29;20032;-70
2022/01/20 06:15:53;;;;;;;185.07;113.10;;;-2.10;99.90;;;;;;4950666;28;20023;-70
2022/01/20 06:18:20;;;;;;;198.10;114.05;;;-2.00;99.90;;;;;;4961591;29;20034;-72
2022/01/20 06:20:57;;;;;;;226.25;124.35;;;-1.90;99.90;;;;;;4963572;29;20107;-71
2022/01/20 06:23:24;;;;;;;194.45;107.13;;;-1.80;99.90;;;;;;4965673;29;20035;-72
2022/01/20 06:25:52;;;;;;;224.13;136.88;;;-1.80;99.90;;;;;;4945880;29;20058;-71
2022/01/20 06:28:21;;;;;;;199.02;125.13;;;-1.80;99.90;;;;;;4946743;29;20714;-71
2022/01/20 06:30:49;;;;;;;194.90;116.68;;;-1.80;99.90;;;;;;4940887;29;20130;-71
2022/01/20 06:33:15;;;;;;;163.90;98.28;;;-1.70;99.90;;;;;;4954767;29;20478;-74
2022/01/20 06:35:49;;;;;;;154.30;98.47;;;-1.70;99.90;;;;;;4956933;29;20032;-74
2022/01/20 06:38:15;;;;;;;166.73;105.78;;;-1.50;99.90;;;;;;4955079;29;20050;-73
2022/01/20 06:40:42;;;;;;;184.70;113.35;;;-1.40;99.90;;;;;;4938766;29;20031;-71
2022/01/20 06:43:11;;;;;;;182.75;113.93;;;-1.30;99.90;;;;;;4954732;29;20065;-71
2022/01/20 06:45:37;;;;;;;188.00;116.25;;;-1.20;99.90;;;;;;4947300;29;20473;-71
2022/01/20 06:48:10;;;;;;;202.88;125.40;;;-1.10;99.90;;;;;;4941274;29;20127;-71
2022/01/20 06:50:49;;;;;;;235.00;153.60;;;-1.10;99.90;;;;;;4940753;29;20039;-71
2022/01/20 06:53:14;;;;;;;236.27;144.23;;;-1.20;99.90;;;;;;4954564;28;20054;-71
2022/01/20 06:55:40;;;;;;;215.60;134.77;;;-1.20;99.90;;;;;;4954315;29;20043;-71
2022/01/20 06:58:25;;;;;;;308.60;187.85;;;-1.10;99.90;;;;;;4956063;29;20087;-71
2022/01/20 07:00:51;;;;;;;280.60;173.98;;;-1.00;99.90;;;;;;4954526;29;20043;-71
2022/01/20 07:03:17;;;;;;;264.08;162.73;;;-0.90;99.90;;;;;;4954253;29;20054;-71
2022/01/20 07:05:43;;;;;;;263.73;166.32;;;-0.90;99.90;;;;;;4954523;29;20102;-71
2022/01/20 07:08:10;;;;;;;260.58;157.38;;;-0.70;99.90;;;;;;4954479;28;20028;-74
2022/01/20 07:10:37;;;;;;;249.05;147.93;;;-0.60;99.90;;;;;;4955420;29;20038;-71
2022/01/20 07:13:04;;;;;;;263.63;157.13;;;-0.40;99.90;;;;;;4954078;28;20035;-73
2022/01/20 07:15:30;;;;;;;236.32;144.27;;;-0.30;99.90;;;;;;4955963;29;20043;-71
2022/01/20 07:17:58;;;;;;;242.30;152.40;;;-0.20;99.90;;;;;;4954663;29;20027;-74
2022/01/20 07:20:25;;;;;;;210.50;125.10;;;-0.30;99.90;;;;;;4956173;28;20516;-72
2022/01/20 07:23:12;;;;;;;154.40;93.13;;;-0.30;99.90;;;;;;4858895;29;20508;-72
2022/01/20 07:25:58;;;;;;;134.93;81.53;;;-0.50;99.90;;;;;;4843486;29;20136;-71
2022/01/20 07:28:24;;;;;;;124.32;71.57;;;-0.60;99.90;;;;;;4842464;29;20132;-72
2022/01/20 07:30:51;;;;;;;113.82;73.70;;;-0.50;99.90;;;;;;4843426;29;20520;-72
2022/01/20 07:33:19;;;;;;;92.90;57.75;;;-0.20;99.90;;;;;;4843758;29;20529;-72
2022/01/20 07:35:46;;;;;;;81.10;46.10;;;-0.10;99.90;;;;;;4858771;29;20120;-71
2022/01/20 07:38:13;;;;;;;66.25;41.13;;;0.20;99.90;;;;;;4859772;29;20095;-73
2022/01/20 07:40:43;;;;;;;61.85;37.65;;;0.30;99.90;;;;;;4862428;29;20045;-73
2022/01/20 07:43:09;;;;;;;70.43;36.08;;;0.50;99.90;;;;;;4865427;29;20029;-72
2022/01/20 07:45:46;;;;;;;62.10;35.97;;;0.60;99.90;;;;;;4846966;29;20085;-72
2022/01/20 07:48:25;;;;;;;74.15;44.55;;;0.60;99.90;;;;;;4842893;29;20041;-71
2022/01/20 07:51:02;;;;;;;89.97;48.28;;;0.70;99.90;;;;;;4858470;29;20040;-73
2022/01/20 07:53:34;;;;;;;79.57;46.63;;;0.90;99.90;;;;;;4843099;29;20405;-72
2022/01/20 07:56:01;;;;;;;78.53;48.22;;;0.90;99.90;;;;;;4858094;29;20161;-72
2022/01/20 07:58:27;;;;;;;93.55;52.35;;;0.90;99.90;;;;;;4842370;29;20050;-72
2022/01/20 08:00:53;;;;;;;110.03;62.08;;;0.90;99.90;;;;;;4913157;29;20451;-72
2022/01/20 08:03:19;;;;;;;92.63;53.45;;;0.90;99.90;;;;;;4937514;29;20119;-72
2022/01/20 08:06:03;;;;;;;89.85;50.60;;;1.00;99.90;;;;;;4965558;29;20116;-73
2022/01/20 08:08:34;;;;;;;109.25;58.65;;;1.30;99.90;;;;;;4959286;29;20382;-72
2022/01/20 08:11:31;;;;;;;123.10;70.38;;;1.40;99.90;;;;;;4953249;29;20093;-72
2022/01/20 08:14:30;;;;;;;137.35;77.05;;;1.80;99.90;;;;;;4941877;29;20433;-72
2022/01/20 08:16:57;;;;;;;176.98;102.30;;;2.10;99.90;;;;;;4959025;29;20023;-72
2022/01/20 08:19:25;;;;;;;134.48;82.30;;;2.30;99.90;;;;;;4952571;28;20508;-73
2022/01/20 08:21:52;;;;;;;108.85;66.43;;;2.60;99.90;;;;;;4952503;29;20031;-72
2022/01/20 08:24:18;;;;;;;98.47;55.35;;;2.90;99.90;;;;;;4951934;29;20245;-72
2022/01/20 08:26:44;;;;;;;90.68;53.50;;;2.90;99.90;;;;;;4952520;29;20485;-71
2022/01/20 08:29:13;;;;;;;75.43;47.33;;;3.10;99.90;;;;;;4952891;28;20129;-72
2022/01/20 08:31:40;;;;;;;79.68;48.53;;;3.20;99.90;;;;;;4952719;29;20554;-71
2022/01/20 08:34:34;;;;;;;74.35;46.42;;;3.40;99.90;;;;;;4958369;29;20063;-72
2022/01/20 08:37:30;;;;;;;87.22;48.33;;;3.70;99.90;;;;;;4876124;29;20181;-72
2022/01/20 08:39:57;;;;;;;102.35;57.17;;;3.80;99.90;;;;;;4866914;29;20137;-72
2022/01/20 08:42:24;;;;;;;115.80;69.07;;;4.10;99.90;;;;;;4877370;29;20491;-72
2022/01/20 08:44:50;;;;;;;113.40;69.63;;;4.30;99.90;;;;;;4875563;29;20061;-72
2022/01/20 08:47:18;;;;;;;145.60;85.63;;;4.60;99.90;;;;;;4875810;29;20033;-72
2022/01/20 08:49:47;;;;;;;128.75;78.15;;;4.70;99.90;;;;;;4865013;29;20033;-72
2022/01/20 08:52:15;;;;;;;117.35;72.95;;;4.70;99.90;;;;;;4866581;29;20116;-71
2022/01/20 08:54:46;;;;;;;106.60;65.05;;;4.90;99.90;;;;;;4879036;29;20052;-72
2022/01/20 08:57:31;;;;;;;102.03;59.75;;;5.00;99.90;;;;;;4875498;29;20048;-72
2022/01/20 08:59:57;;;;;;;95.35;60.10;;;4.90;99.90;;;;;;4876241;29;20251;-71
2022/01/20 09:02:24;;;;;;;103.20;62.42;;;5.00;99.90;;;;;;4876152;29;20085;-71
2022/01/20 09:04:51;;;;;;;84.60;53.95;;;4.90;99.90;;;;;;4875762;29;20131;-70
2022/01/20 09:07:35;;;;;;;80.93;47.33;;;5.00;99.90;;;;;;4875684;29;20420;-71
2022/01/20 09:10:05;;;;;;;94.20;57.38;;;5.00;99.90;;;;;;4875382;29;20492;-72
2022/01/20 09:17:51;;;;;;;86.85;55.83;;;5.10;99.90;;;;;;4952122;29;20035;-72
2022/01/20 09:20:18;;;;;;;96.20;60.85;;;5.00;99.90;;;;;;4951826;29;20280;-71
2022/01/20 09:22:44;;;;;;;78.25;49.70;;;5.10;99.90;;;;;;4952269;29;20027;-71
2022/01/20 09:25:11;;;;;;;93.28;56.78;;;5.10;99.90;;;;;;4951575;29;20028;-72
2022/01/20 09:27:39;;;;;;;108.70;61.22;;;5.20;99.90;;;;;;4952142;29;20031;-71
2022/01/20 09:30:06;;;;;;;89.88;55.65;;;5.20;99.90;;;;;;4952378;29;20086;-71
2022/01/20 09:32:37;;;;;;;143.90;91.45;;;5.40;99.90;;;;;;4952235;29;20027;-71
2022/01/20 09:35:04;;;;;;;169.43;107.38;;;5.40;99.90;;;;;;4952271;29;20041;-72
2022/01/20 09:37:30;;;;;;;151.43;96.88;;;5.50;99.90;;;;;;4936409;29;20059;-71
2022/01/20 09:39:56;;;;;;;145.55;86.53;;;5.50;99.90;;;;;;4952476;29;20539;-72
2022/01/20 09:42:36;;;;;;;123.63;75.68;;;5.50;99.90;;;;;;4936188;29;20024;-72
2022/01/20 09:45:04;;;;;;;112.57;73.72;;;5.50;99.90;;;;;;4953201;29;20066;-71
2022/01/20 09:47:30;;;;;;;158.70;94.15;;;5.60;99.90;;;;;;4952359;29;20027;-70
2022/01/20 09:49:56;;;;;;;309.00;191.63;;;5.60;99.90;;;;;;4954103;28;20090;-71
2022/01/20 09:52:29;;;;;;;153.27;100.00;;;5.50;99.90;;;;;;4955756;29;20029;-73
2022/01/20 09:55:09;;;;;;;144.98;93.53;;;5.50;99.90;;;;;;4955823;29;20493;-73
2022/01/20 09:57:35;;;;;;;131.27;89.28;;;5.40;99.90;;;;;;4955846;29;20434;-73
2022/01/20 10:00:03;;;;;;;100.82;67.38;;;5.50;99.90;;;;;;4955208;29;20051;-71
2022/01/20 10:02:30;;;;;;;90.13;58.33;;;5.50;99.90;;;;;;4955644;29;20413;-71
2022/01/20 10:04:58;;;;;;;98.78;67.00;;;5.50;99.90;;;;;;4939556;29;20697;-71
2022/01/20 10:07:34;;;;;;;100.97;65.72;;;5.60;99.90;;;;;;4955779;29;20058;-71
2022/01/20 10:10:15;;;;;;;178.90;104.35;;;5.50;99.90;;;;;;4955057;29;20111;-71
2022/01/20 10:13:07;;;;;;;173.13;109.13;;;5.60;99.90;;;;;;4956986;29;20050;-70
2022/01/20 10:16:08;;;;;;;364.70;203.20;;;5.60;99.90;;;;;;4915990;29;20167;-71
2022/01/20 10:19:05;;;;;;;278.75;143.18;;;5.80;99.90;;;;;;4912041;29;20072;-72
2022/01/20 10:21:38;;;;;;;315.70;161.85;;;5.90;99.90;;;;;;4900836;29;20051;-71
2022/01/20 10:24:27;;;;;;;438.40;220.43;;;6.10;99.90;;;;;;4924412;29;20043;-70
2022/01/20 10:27:13;;;;;;;251.38;130.68;;;6.20;99.90;;;;;;4908062;29;20039;-72
2022/01/20 10:30:05;;;;;;;210.48;118.38;;;6.40;99.90;;;;;;4916888;29;20187;-71
2022/01/20 10:32:46;;;;;;;154.75;88.97;;;6.50;99.90;;;;;;4924997;29;20392;-71
2022/01/20 10:35:16;;;;;;;101.55;66.78;;;6.70;99.90;;;;;;4884998;29;20498;-72
2022/01/20 10:38:03;;;;;;;111.00;70.20;;;6.70;99.90;;;;;;4900176;29;20181;-71
2022/01/20 10:40:50;;;;;;;118.68;70.85;;;6.90;99.90;;;;;;4915216;29;20447;-70
2022/01/20 10:43:24;;;;;;;116.13;72.95;;;7.00;99.90;;;;;;4899491;29;20090;-71
2022/01/20 10:46:05;;;;;;;100.80;62.95;;;7.10;99.90;;;;;;4899164;29;20123;-70
2022/01/20 10:48:32;;;;;;;86.43;56.05;;;7.10;99.90;;;;;;4901903;29;20040;-71
2022/01/20 10:51:01;;;;;;;96.88;58.92;;;7.10;99.90;;;;;;4922608;29;20158;-71
2022/01/20 10:53:29;;;;;;;96.38;61.25;;;7.10;99.90;;;;;;4941422;29;20048;-71
2022/01/20 10:56:06;;;;;;;92.03;59.93;;;7.00;99.90;;;;;;4962930;29;20122;-72
2022/01/20 10:58:34;;;;;;;83.50;57.08;;;6.80;99.90;;;;;;4963331;29;20497;-71
2022/01/20 11:01:14;;;;;;;106.97;65.95;;;6.80;99.90;;;;;;4954112;28;20393;-70
2022/01/20 11:03:40;;;;;;;111.90;72.45;;;6.80;99.90;;;;;;4953817;29;20035;-71
2022/01/20 11:06:06;;;;;;;91.32;60.30;;;6.80;99.90;;;;;;4938276;29;20038;-71
2022/01/20 11:08:44;;;;;;;115.00;71.57;;;6.70;99.90;;;;;;4937945;29;20028;-71
2022/01/20 11:11:14;;;;;;;99.47;57.25;;;6.80;99.90;;;;;;4954538;29;20051;-71
2022/01/20 11:13:45;;;;;;;97.20;61.13;;;6.60;99.90;;;;;;4955728;29;20054;-71
2022/01/20 11:16:12;;;;;;;175.05;88.78;;;6.60;99.90;;;;;;4938836;29;20545;-71
2022/01/20 11:18:42;;;;;;;142.18;76.63;;;6.60;99.90;;;;;;4961103;29;20031;-71
2022/01/20 11:21:10;;;;;;;161.90;88.40;;;6.60;99.90;;;;;;4960519;29;20046;-71
2022/01/20 11:23:42;;;;;;;116.38;67.53;;;6.60;99.90;;;;;;4943498;29;20034;-71
2022/01/20 11:26:54;;;;;;;136.90;74.78;;;6.50;99.90;;;;;;4904770;29;20040;-70
2022/01/20 11:29:44;;;;;;;113.13;64.78;;;6.60;99.90;;;;;;4906306;29;20052;-71
2022/01/20 11:32:33;;;;;;;186.82;93.25;;;6.50;99.90;;;;;;4920131;29;20048;-71
2022/01/20 11:35:10;;;;;;;113.10;66.25;;;6.50;99.90;;;;;;4899144;29;20032;-71
2022/01/20 11:37:41;;;;;;;116.25;70.68;;;6.50;99.90;;;;;;4919858;29;20044;-71
2022/01/20 11:40:12;;;;;;;112.82;70.57;;;6.50;99.90;;;;;;4922316;29;20156;-72
2022/01/20 11:42:38;;;;;;;113.45;74.78;;;6.50;99.90;;;;;;4914974;29;20035;-71
2022/01/20 11:45:28;;;;;;;158.30;94.15;;;6.40;99.90;;;;;;4913558;29;20040;-71
2022/01/20 11:47:56;;;;;;;245.18;132.82;;;6.40;99.90;;;;;;4922799;29;20036;-71
2022/01/20 11:50:23;;;;;;;111.95;63.95;;;6.30;99.90;;;;;;4907843;29;20418;-73
2022/01/20 11:52:51;;;;;;;143.68;79.88;;;6.20;99.90;;;;;;4907029;29;20475;-72
2022/01/20 11:55:19;;;;;;;139.55;77.13;;;6.10;99.90;;;;;;4916386;29;20035;-73
2022/01/20 11:57:45;;;;;;;200.77;106.95;;;6.10;99.90;;;;;;4921205;29;20052;-70
2022/01/20 12:00:28;;;;;;;172.35;99.25;;;6.10;99.90;;;;;;4961576;29;20102;-72
2022/01/20 12:02:55;;;;;;;132.02;79.15;;;6.10;99.90;;;;;;4959598;29;20485;-73
2022/01/20 12:05:35;;;;;;;128.38;72.88;;;6.10;99.90;;;;;;4962428;29;20051;-73
2022/01/20 12:08:21;;;;;;;98.85;62.72;;;6.20;99.90;;;;;;4959643;29;20045;-72
2022/01/20 12:11:07;;;;;;;193.68;110.00;;;6.20;99.90;;;;;;4953796;29;20389;-70
2022/01/20 12:13:45;;;;;;;78.07;49.85;;;6.00;99.90;;;;;;4954233;28;20035;-72
2022/01/20 12:16:20;;;;;;;67.97;46.53;;;5.90;99.90;;;;;;4936997;29;20441;-71
2022/01/20 12:18:54;;;;;;;76.20;48.47;;;5.90;99.90;;;;;;4955620;29;20036;-71
2022/01/20 12:21:21;;;;;;;70.45;44.65;;;6.00;99.90;;;;;;4953151;29;20117;-70
2022/01/20 12:23:48;;;;;;;87.50;49.25;;;6.00;99.90;;;;;;4954528;29;20027;-71
2022/01/20 12:26:15;;;;;;;83.65;54.55;;;6.00;99.90;;;;;;4953907;29;20094;-70
2022/01/20 12:28:41;;;;;;;91.60;56.42;;;5.90;99.90;;;;;;4936578;29;20034;-71
2022/01/20 12:31:14;;;;;;;166.45;102.13;;;5.90;99.90;;;;;;4967275;29;20685;-71
2022/01/20 12:33:46;;;;;;;128.60;76.72;;;5.80;99.90;;;;;;4946945;29;20027;-71
2022/01/20 12:36:14;;;;;;;97.55;62.08;;;5.80;99.90;;;;;;4954030;29;20035;-71
2022/01/20 12:38:42;;;;;;;73.28;45.42;;;5.80;99.90;;;;;;4954270;29;20091;-70
2022/01/20 12:41:12;;;;;;;70.75;46.80;;;5.80;99.90;;;;;;4954021;29;20042;-70
2022/01/20 12:43:41;;;;;;;75.50;47.40;;;5.80;99.90;;;;;;4954006;29;20498;-71
2022/01/20 12:46:14;;;;;;;67.30;44.22;;;5.80;99.90;;;;;;4961807;29;20023;-71
2022/01/20 12:48:55;;;;;;;66.47;42.53;;;5.80;99.90;;;;;;4954357;29;20085;-71
2022/01/20 12:51:42;;;;;;;66.05;42.47;;;5.70;99.90;;;;;;4952739;29;20023;-70
2022/01/20 12:54:17;;;;;;;67.95;43.63;;;5.70;99.90;;;;;;4954434;29;20508;-72
2022/01/20 12:56:49;;;;;;;60.92;42.15;;;5.70;99.90;;;;;;4953376;29;20028;-72
2022/01/20 12:59:21;;;;;;;71.00;45.25;;;5.60;99.90;;;;;;4952954;29;20110;-72
2022/01/20 13:01:49;;;;;;;73.47;48.13;;;5.50;99.90;;;;;;4953696;29;20051;-72
2022/01/20 13:04:17;;;;;;;80.28;49.70;;;5.50;99.90;;;;;;4953452;29;20031;-73
2022/01/20 13:06:51;;;;;;;72.43;43.90;;;5.40;99.90;;;;;;4935878;29;20098;-70
2022/01/20 13:09:24;;;;;;;55.67;35.97;;;5.30;99.90;;;;;;4958387;29;20086;-73
2022/01/20 13:12:02;;;;;;;54.08;33.67;;;5.40;99.90;;;;;;4940566;29;20031;-71
2022/01/20 13:14:49;;;;;;;48.65;28.45;;;5.40;99.90;;;;;;4953086;29;20024;-71
2022/01/20 13:17:27;;;;;;;46.38;29.35;;;5.40;99.90;;;;;;4935644;29;20061;-69
2022/01/20 13:19:55;;;;;;;37.05;25.20;;;5.40;99.90;;;;;;4954866;29;20054;-70
2022/01/20 13:22:42;;;;;;;39.45;25.20;;;5.40;99.90;;;;;;4953420;29;20418;-70
2022/01/20 13:25:08;;;;;;;41.72;26.52;;;5.40;99.90;;;;;;4952221;28;20038;-70
2022/01/20 13:27:35;;;;;;;46.97;26.80;;;5.50;99.90;;;;;;4951212;29;20027;-70
2022/01/20 13:30:03;;;;;;;42.22;24.92;;;5.50;99.90;;;;;;4934880;29;20582;-70
2022/01/20 13:32:29;;;;;;;35.28;22.83;;;5.40;99.90;;;;;;4952984;29;20023;-70
2022/01/20 13:35:00;;;;;;;46.15;28.00;;;5.40;99.90;;;;;;4936416;29;20066;-70
2022/01/20 13:37:30;;;;;;;42.00;25.15;;;5.50;99.90;;;;;;4960861;29;20102;-71
2022/01/20 13:39:59;;;;;;;37.72;21.75;;;5.50;99.90;;;;;;4953452;29;20090;-70
2022/01/20 13:45:13;;;;;;;45.25;22.23;;;5.50;99.90;;;;;;4953118;29;20486;-70
2022/01/20 13:47:54;;;;;;;30.63;15.93;;;5.60;99.90;;;;;;4952926;29;20019;-71
2022/01/20 13:50:32;;;;;;;41.78;23.75;;;5.60;99.90;;;;;;4961032;29;20030;-71
2022/01/20 13:53:01;;;;;;;38.75;22.17;;;5.70;99.90;;;;;;4963424;29;20110;-72
2022/01/20 13:55:35;;;;;;;34.65;19.33;;;5.70;99.90;;;;;;4959906;29;20031;-71